sensor_id;sensor_type;location;lat;lon;timestamp;P1;durP1;ratioP1;P2;durP2;ratioP2
7025;SDS011;3554;42.132;24.786;2023-05-16T00:01:55;50.70;;;34.87;;
7025;SDS011;3554;42.132;24.786;2023-05-16T00:04:22;53.13;;;34.17;;
7025;SDS011;3554;42.132;24.786;2023-05-16T00:06:50;48.40;;;34.53;;
7025;SDS011;3554;42.132;24.786;2023-05-16T00:09:18;50.70;;;33.33;;
7025;SDS011;3554;42.132;24.786;2023-05-16T00:11:44;46.43;;;33.23;;
7025;SDS011;3554;42.132;24.786;2023-05-16T00:14:12;45.27;;;33.97;;
7025;SDS011;3554;42.132;24.786;2023-05-16T00:16:39;43.43;;;33.70;;
7025;SDS011;3554;42.132;24.786;2023-05-16T00:19:07;51.00;;;34.47;;
7025;SDS011;3554;42.132;24.786;2023-05-16T00:21:34;46.93;;;33.73;;
7025;SDS011;3554;42.132;24.786;2023-05-16T00:24:01;42.23;;;32.33;;
7025;SDS011;3554;42.132;24.786;2023-05-16T00:26:29;47.13;;;34.40;;
7025;SDS011;3554;42.132;24.786;2023-05-16T00:28:56;46.73;;;33.43;;
7025;SDS011;3554;42.132;24.786;2023-05-16T00:31:23;47.87;;;33.60;;
7025;SDS011;3554;42.132;24.786;2023-05-16T00:33:49;45.17;;;34.57;;
7025;SDS011;3554;42.132;24.786;2023-05-16T00:36:16;47.17;;;32.67;;
7025;SDS011;3554;42.132;24.786;2023-05-16T00:38:43;46.33;;;34.27;;
7025;SDS011;3554;42.132;24.786;2023-05-16T00:41:10;47.43;;;34.20;;
7025;SDS011;3554;42.132;24.786;2023-05-16T00:43:38;47.87;;;34.93;;
7025;SDS011;3554;42.132;24.786;2023-05-16T00:46:05;54.30;;;36.53;;
7025;SDS011;3554;42.132;24.786;2023-05-16T00:48:31;47.70;;;35.17;;
7025;SDS011;3554;42.132;24.786;2023-05-16T00:50:59;48.83;;;34.87;;
7025;SDS011;3554;42.132;24.786;2023-05-16T00:53:26;47.17;;;35.47;;
7025;SDS011;3554;42.132;24.786;2023-05-16T00:55:53;46.43;;;34.37;;
7025;SDS011;3554;42.132;24.786;2023-05-16T00:58:21;49.60;;;34.70;;
7025;SDS011;3554;42.132;24.786;2023-05-16T01:00:51;50.70;;;37.00;;
7025;SDS011;3554;42.132;24.786;2023-05-16T01:03:18;49.37;;;36.10;;
7025;SDS011;3554;42.132;24.786;2023-05-16T01:05:45;44.83;;;34.40;;
7025;SDS011;3554;42.132;24.786;2023-05-16T01:08:12;52.73;;;35.33;;
7025;SDS011;3554;42.132;24.786;2023-05-16T01:10:41;48.97;;;35.47;;
7025;SDS011;3554;42.132;24.786;2023-05-16T01:13:17;48.63;;;34.40;;
7025;SDS011;3554;42.132;24.786;2023-05-16T01:15:55;50.23;;;35.47;;
7025;SDS011;3554;42.132;24.786;2023-05-16T01:18:30;47.37;;;34.80;;
7025;SDS011;3554;42.132;24.786;2023-05-16T01:21:03;47.73;;;35.07;;
7025;SDS011;3554;42.132;24.786;2023-05-16T01:23:39;50.87;;;36.33;;
7025;SDS011;3554;42.132;24.786;2023-05-16T01:26:19;53.70;;;37.43;;
7025;SDS011;3554;42.132;24.786;2023-05-16T01:28:47;53.30;;;36.37;;
7025;SDS011;3554;42.132;24.786;2023-05-16T01:31:15;50.67;;;36.80;;
7025;SDS011;3554;42.132;24.786;2023-05-16T01:33:42;52.07;;;37.40;;
7025;SDS011;3554;42.132;24.786;2023-05-16T01:36:14;55.47;;;37.77;;
7025;SDS011;3554;42.132;24.786;2023-05-16T01:38:51;55.30;;;39.30;;
7025;SDS011;3554;42.132;24.786;2023-05-16T01:41:29;50.30;;;35.90;;
7025;SDS011;3554;42.132;24.786;2023-05-16T01:44:08;50.13;;;37.10;;
7025;SDS011;3554;42.132;24.786;2023-05-16T01:46:42;50.93;;;36.10;;
7025;SDS011;3554;42.132;24.786;2023-05-16T01:49:14;57.43;;;38.30;;
7025;SDS011;3554;42.132;24.786;2023-05-16T01:51:47;59.87;;;37.27;;
7025;SDS011;3554;42.132;24.786;2023-05-16T01:54:19;56.33;;;39.07;;
7025;SDS011;3554;42.132;24.786;2023-05-16T01:56:52;55.27;;;38.43;;
7025;SDS011;3554;42.132;24.786;2023-05-16T01:59:21;55.77;;;38.33;;
7025;SDS011;3554;42.132;24.786;2023-05-16T02:01:51;58.40;;;39.10;;
7025;SDS011;3554;42.132;24.786;2023-05-16T02:04:19;58.03;;;37.93;;
7025;SDS011;3554;42.132;24.786;2023-05-16T02:06:46;57.77;;;38.53;;
7025;SDS011;3554;42.132;24.786;2023-05-16T02:09:13;56.20;;;39.20;;
7025;SDS011;3554;42.132;24.786;2023-05-16T02:11:40;54.03;;;36.63;;
7025;SDS011;3554;42.132;24.786;2023-05-16T02:14:08;55.73;;;38.53;;
7025;SDS011;3554;42.132;24.786;2023-05-16T02:16:35;54.03;;;38.30;;
7025;SDS011;3554;42.132;24.786;2023-05-16T02:19:02;61.40;;;38.97;;
7025;SDS011;3554;42.132;24.786;2023-05-16T02:21:29;60.03;;;38.20;;
7025;SDS011;3554;42.132;24.786;2023-05-16T02:23:56;55.73;;;37.00;;
7025;SDS011;3554;42.132;24.786;2023-05-16T02:26:22;57.70;;;39.60;;
7025;SDS011;3554;42.132;24.786;2023-05-16T02:28:49;57.97;;;38.07;;
7025;SDS011;3554;42.132;24.786;2023-05-16T02:31:25;57.50;;;37.70;;
7025;SDS011;3554;42.132;24.786;2023-05-16T02:33:53;65.47;;;39.33;;
7025;SDS011;3554;42.132;24.786;2023-05-16T02:36:20;53.07;;;36.30;;
7025;SDS011;3554;42.132;24.786;2023-05-16T02:38:47;57.37;;;38.20;;
7025;SDS011;3554;42.132;24.786;2023-05-16T02:41:14;55.50;;;37.30;;
7025;SDS011;3554;42.132;24.786;2023-05-16T02:43:40;54.90;;;37.87;;
7025;SDS011;3554;42.132;24.786;2023-05-16T02:46:18;53.40;;;39.37;;
7025;SDS011;3554;42.132;24.786;2023-05-16T02:48:48;55.53;;;38.10;;
7025;SDS011;3554;42.132;24.786;2023-05-16T02:51:15;56.23;;;38.17;;
7025;SDS011;3554;42.132;24.786;2023-05-16T02:53:42;55.43;;;37.43;;
7025;SDS011;3554;42.132;24.786;2023-05-16T02:56:08;55.70;;;37.47;;
7025;SDS011;3554;42.132;24.786;2023-05-16T02:58:35;56.63;;;37.93;;
7025;SDS011;3554;42.132;24.786;2023-05-16T03:01:02;64.07;;;38.93;;
7025;SDS011;3554;42.132;24.786;2023-05-16T03:03:29;54.20;;;36.67;;
7025;SDS011;3554;42.132;24.786;2023-05-16T03:05:58;57.47;;;37.80;;
7025;SDS011;3554;42.132;24.786;2023-05-16T03:08:25;54.37;;;38.83;;
7025;SDS011;3554;42.132;24.786;2023-05-16T03:10:52;61.60;;;39.77;;
7025;SDS011;3554;42.132;24.786;2023-05-16T03:13:18;60.80;;;37.97;;
7025;SDS011;3554;42.132;24.786;2023-05-16T03:15:47;55.53;;;38.27;;
7025;SDS011;3554;42.132;24.786;2023-05-16T03:18:13;60.70;;;38.20;;
7025;SDS011;3554;42.132;24.786;2023-05-16T03:20:40;57.47;;;38.23;;
7025;SDS011;3554;42.132;24.786;2023-05-16T03:23:08;63.17;;;37.67;;
7025;SDS011;3554;42.132;24.786;2023-05-16T03:25:35;57.23;;;36.80;;
7025;SDS011;3554;42.132;24.786;2023-05-16T03:28:02;61.57;;;38.87;;
7025;SDS011;3554;42.132;24.786;2023-05-16T03:30:30;63.83;;;40.67;;
7025;SDS011;3554;42.132;24.786;2023-05-16T03:32:57;66.27;;;38.87;;
7025;SDS011;3554;42.132;24.786;2023-05-16T03:35:24;63.67;;;39.40;;
7025;SDS011;3554;42.132;24.786;2023-05-16T03:37:51;62.77;;;40.13;;
7025;SDS011;3554;42.132;24.786;2023-05-16T03:40:19;60.77;;;38.77;;
7025;SDS011;3554;42.132;24.786;2023-05-16T03:42:46;63.93;;;39.73;;
7025;SDS011;3554;42.132;24.786;2023-05-16T03:45:12;61.80;;;40.17;;
7025;SDS011;3554;42.132;24.786;2023-05-16T03:47:39;54.50;;;39.93;;
7025;SDS011;3554;42.132;24.786;2023-05-16T03:50:07;63.20;;;40.10;;
7025;SDS011;3554;42.132;24.786;2023-05-16T03:52:35;56.33;;;37.57;;
7025;SDS011;3554;42.132;24.786;2023-05-16T03:55:02;53.93;;;38.23;;
7025;SDS011;3554;42.132;24.786;2023-05-16T03:57:31;55.37;;;36.27;;
7025;SDS011;3554;42.132;24.786;2023-05-16T03:59:59;51.37;;;36.47;;
7025;SDS011;3554;42.132;24.786;2023-05-16T04:02:26;55.77;;;36.17;;
7025;SDS011;3554;42.132;24.786;2023-05-16T04:04:52;48.80;;;34.73;;
7025;SDS011;3554;42.132;24.786;2023-05-16T04:07:19;51.60;;;36.87;;
7025;SDS011;3554;42.132;24.786;2023-05-16T04:09:46;57.07;;;36.90;;
7025;SDS011;3554;42.132;24.786;2023-05-16T04:12:13;54.60;;;38.47;;
7025;SDS011;3554;42.132;24.786;2023-05-16T04:14:41;65.73;;;41.67;;
7025;SDS011;3554;42.132;24.786;2023-05-16T04:17:07;55.03;;;37.73;;
7025;SDS011;3554;42.132;24.786;2023-05-16T04:19:35;52.57;;;37.20;;
7025;SDS011;3554;42.132;24.786;2023-05-16T04:22:01;57.70;;;37.00;;
7025;SDS011;3554;42.132;24.786;2023-05-16T04:24:28;53.30;;;37.37;;
7025;SDS011;3554;42.132;24.786;2023-05-16T04:26:55;53.87;;;36.00;;
7025;SDS011;3554;42.132;24.786;2023-05-16T04:29:22;47.57;;;35.13;;
7025;SDS011;3554;42.132;24.786;2023-05-16T04:31:50;46.33;;;33.47;;
7025;SDS011;3554;42.132;24.786;2023-05-16T04:34:17;43.13;;;33.10;;
7025;SDS011;3554;42.132;24.786;2023-05-16T04:36:43;43.87;;;31.63;;
7025;SDS011;3554;42.132;24.786;2023-05-16T04:39:10;36.33;;;28.90;;
7025;SDS011;3554;42.132;24.786;2023-05-16T04:41:37;35.37;;;27.57;;
7025;SDS011;3554;42.132;24.786;2023-05-16T04:44:04;38.80;;;27.23;;
7025;SDS011;3554;42.132;24.786;2023-05-16T04:46:31;36.73;;;27.77;;
7025;SDS011;3554;42.132;24.786;2023-05-16T04:48:59;30.53;;;25.73;;
7025;SDS011;3554;42.132;24.786;2023-05-16T04:51:26;26.70;;;22.77;;
7025;SDS011;3554;42.132;24.786;2023-05-16T04:53:52;28.07;;;23.60;;
7025;SDS011;3554;42.132;24.786;2023-05-16T04:56:20;27.03;;;22.70;;
7025;SDS011;3554;42.132;24.786;2023-05-16T04:58:46;28.67;;;22.47;;
7025;SDS011;3554;42.132;24.786;2023-05-16T05:01:13;23.13;;;20.83;;
7025;SDS011;3554;42.132;24.786;2023-05-16T05:03:40;27.17;;;21.77;;
7025;SDS011;3554;42.132;24.786;2023-05-16T05:06:09;27.83;;;23.17;;
7025;SDS011;3554;42.132;24.786;2023-05-16T05:08:35;29.87;;;21.77;;
7025;SDS011;3554;42.132;24.786;2023-05-16T05:11:02;28.87;;;21.93;;
7025;SDS011;3554;42.132;24.786;2023-05-16T05:13:29;23.67;;;20.77;;
7025;SDS011;3554;42.132;24.786;2023-05-16T05:15:56;32.30;;;20.93;;
7025;SDS011;3554;42.132;24.786;2023-05-16T05:18:22;25.03;;;20.30;;
7025;SDS011;3554;42.132;24.786;2023-05-16T05:20:49;22.47;;;20.23;;
7025;SDS011;3554;42.132;24.786;2023-05-16T05:23:18;22.30;;;19.70;;
7025;SDS011;3554;42.132;24.786;2023-05-16T05:25:45;22.97;;;20.50;;
7025;SDS011;3554;42.132;24.786;2023-05-16T05:28:12;24.30;;;21.33;;
7025;SDS011;3554;42.132;24.786;2023-05-16T05:30:38;23.53;;;20.67;;
7025;SDS011;3554;42.132;24.786;2023-05-16T05:33:05;24.03;;;20.00;;
7025;SDS011;3554;42.132;24.786;2023-05-16T05:35:32;24.87;;;20.07;;
7025;SDS011;3554;42.132;24.786;2023-05-16T05:37:59;21.80;;;19.60;;
7025;SDS011;3554;42.132;24.786;2023-05-16T05:40:27;23.80;;;21.33;;
7025;SDS011;3554;42.132;24.786;2023-05-16T05:42:54;23.63;;;20.73;;
7025;SDS011;3554;42.132;24.786;2023-05-16T05:45:20;27.97;;;19.10;;
7025;SDS011;3554;42.132;24.786;2023-05-16T05:47:47;20.90;;;18.83;;
7025;SDS011;3554;42.132;24.786;2023-05-16T05:50:14;24.17;;;19.67;;
7025;SDS011;3554;42.132;24.786;2023-05-16T05:52:41;21.30;;;19.13;;
7025;SDS011;3554;42.132;24.786;2023-05-16T05:55:08;27.03;;;19.83;;
7025;SDS011;3554;42.132;24.786;2023-05-16T05:57:36;22.70;;;20.23;;
7025;SDS011;3554;42.132;24.786;2023-05-16T06:00:03;22.93;;;20.13;;
7025;SDS011;3554;42.132;24.786;2023-05-16T06:02:31;30.57;;;23.53;;
7025;SDS011;3554;42.132;24.786;2023-05-16T06:04:58;30.50;;;20.53;;
7025;SDS011;3554;42.132;24.786;2023-05-16T06:07:24;32.07;;;19.80;;
7025;SDS011;3554;42.132;24.786;2023-05-16T06:09:51;19.40;;;17.40;;
7025;SDS011;3554;42.132;24.786;2023-05-16T06:12:18;15.73;;;14.13;;
7025;SDS011;3554;42.132;24.786;2023-05-16T06:14:46;16.27;;;13.63;;
7025;SDS011;3554;42.132;24.786;2023-05-16T06:17:13;14.30;;;12.93;;
7025;SDS011;3554;42.132;24.786;2023-05-16T06:19:39;13.70;;;12.47;;
7025;SDS011;3554;42.132;24.786;2023-05-16T06:22:06;18.30;;;13.00;;
7025;SDS011;3554;42.132;24.786;2023-05-16T06:24:33;13.53;;;12.33;;
7025;SDS011;3554;42.132;24.786;2023-05-16T06:27:00;14.43;;;13.23;;
7025;SDS011;3554;42.132;24.786;2023-05-16T06:29:27;18.03;;;13.00;;
7025;SDS011;3554;42.132;24.786;2023-05-16T06:31:55;14.90;;;13.50;;
7025;SDS011;3554;42.132;24.786;2023-05-16T06:34:21;16.20;;;13.97;;
7025;SDS011;3554;42.132;24.786;2023-05-16T06:36:52;15.10;;;13.67;;
7025;SDS011;3554;42.132;24.786;2023-05-16T06:39:18;14.40;;;13.00;;
7025;SDS011;3554;42.132;24.786;2023-05-16T06:41:45;15.40;;;14.30;;
7025;SDS011;3554;42.132;24.786;2023-05-16T06:44:12;13.80;;;12.80;;
7025;SDS011;3554;42.132;24.786;2023-05-16T06:46:39;14.90;;;13.53;;
7025;SDS011;3554;42.132;24.786;2023-05-16T06:49:07;14.27;;;13.17;;
7025;SDS011;3554;42.132;24.786;2023-05-16T06:51:34;17.40;;;14.60;;
7025;SDS011;3554;42.132;24.786;2023-05-16T06:54:00;16.60;;;15.13;;
7025;SDS011;3554;42.132;24.786;2023-05-16T06:56:28;17.50;;;14.20;;
7025;SDS011;3554;42.132;24.786;2023-05-16T06:58:55;14.43;;;13.00;;
7025;SDS011;3554;42.132;24.786;2023-05-16T07:01:22;14.70;;;12.87;;
7025;SDS011;3554;42.132;24.786;2023-05-16T07:03:49;14.90;;;13.27;;
7025;SDS011;3554;42.132;24.786;2023-05-16T07:06:17;13.70;;;12.50;;
7025;SDS011;3554;42.132;24.786;2023-05-16T07:08:44;14.77;;;13.50;;
7025;SDS011;3554;42.132;24.786;2023-05-16T07:11:11;14.70;;;13.20;;
7025;SDS011;3554;42.132;24.786;2023-05-16T07:13:38;14.37;;;12.97;;
7025;SDS011;3554;42.132;24.786;2023-05-16T07:16:05;15.50;;;13.97;;
7025;SDS011;3554;42.132;24.786;2023-05-16T07:18:32;15.40;;;12.67;;
7025;SDS011;3554;42.132;24.786;2023-05-16T07:20:59;14.50;;;13.30;;
7025;SDS011;3554;42.132;24.786;2023-05-16T07:23:27;15.37;;;13.03;;
7025;SDS011;3554;42.132;24.786;2023-05-16T07:25:54;13.47;;;12.40;;
7025;SDS011;3554;42.132;24.786;2023-05-16T07:28:21;16.33;;;13.90;;
7025;SDS011;3554;42.132;24.786;2023-05-16T07:30:48;13.57;;;12.27;;
7025;SDS011;3554;42.132;24.786;2023-05-16T07:33:14;13.80;;;12.47;;
7025;SDS011;3554;42.132;24.786;2023-05-16T07:35:41;12.77;;;11.63;;
7025;SDS011;3554;42.132;24.786;2023-05-16T07:38:08;13.20;;;12.17;;
7025;SDS011;3554;42.132;24.786;2023-05-16T07:40:37;13.30;;;12.10;;
7025;SDS011;3554;42.132;24.786;2023-05-16T07:43:03;14.50;;;13.00;;
7025;SDS011;3554;42.132;24.786;2023-05-16T07:45:30;13.03;;;11.97;;
7025;SDS011;3554;42.132;24.786;2023-05-16T07:47:57;13.53;;;12.23;;
7025;SDS011;3554;42.132;24.786;2023-05-16T07:50:24;13.90;;;12.50;;
7025;SDS011;3554;42.132;24.786;2023-05-16T07:52:51;12.80;;;11.90;;
7025;SDS011;3554;42.132;24.786;2023-05-16T07:55:18;13.33;;;12.30;;
7025;SDS011;3554;42.132;24.786;2023-05-16T07:57:47;15.07;;;13.57;;
7025;SDS011;3554;42.132;24.786;2023-05-16T08:00:15;13.60;;;12.33;;
7025;SDS011;3554;42.132;24.786;2023-05-16T08:02:42;13.50;;;12.43;;
7025;SDS011;3554;42.132;24.786;2023-05-16T08:05:09;16.17;;;13.07;;
7025;SDS011;3554;42.132;24.786;2023-05-16T08:07:36;14.97;;;13.33;;
7025;SDS011;3554;42.132;24.786;2023-05-16T08:10:03;14.27;;;13.07;;
7025;SDS011;3554;42.132;24.786;2023-05-16T08:12:30;14.90;;;13.63;;
7025;SDS011;3554;42.132;24.786;2023-05-16T08:14:58;15.10;;;13.57;;
7025;SDS011;3554;42.132;24.786;2023-05-16T08:17:25;15.60;;;14.03;;
7025;SDS011;3554;42.132;24.786;2023-05-16T08:19:52;13.83;;;12.53;;
7025;SDS011;3554;42.132;24.786;2023-05-16T08:22:19;15.17;;;13.80;;
7025;SDS011;3554;42.132;24.786;2023-05-16T08:24:45;17.97;;;14.53;;
7025;SDS011;3554;42.132;24.786;2023-05-16T08:27:12;15.50;;;13.93;;
7025;SDS011;3554;42.132;24.786;2023-05-16T08:29:39;18.23;;;15.03;;
7025;SDS011;3554;42.132;24.786;2023-05-16T08:32:07;15.37;;;13.83;;
7025;SDS011;3554;42.132;24.786;2023-05-16T08:34:35;14.50;;;13.37;;
7025;SDS011;3554;42.132;24.786;2023-05-16T08:37:01;14.33;;;12.33;;
7025;SDS011;3554;42.132;24.786;2023-05-16T08:39:28;15.33;;;13.97;;
7025;SDS011;3554;42.132;24.786;2023-05-16T08:41:55;14.67;;;13.33;;
7025;SDS011;3554;42.132;24.786;2023-05-16T08:44:23;15.53;;;14.00;;
7025;SDS011;3554;42.132;24.786;2023-05-16T08:46:51;14.60;;;13.43;;
7025;SDS011;3554;42.132;24.786;2023-05-16T08:49:20;14.40;;;13.33;;
7025;SDS011;3554;42.132;24.786;2023-05-16T08:51:47;14.50;;;13.07;;
7025;SDS011;3554;42.132;24.786;2023-05-16T08:54:17;12.77;;;11.77;;
7025;SDS011;3554;42.132;24.786;2023-05-16T08:56:44;13.40;;;12.17;;
7025;SDS011;3554;42.132;24.786;2023-05-16T08:59:12;12.00;;;10.97;;
7025;SDS011;3554;42.132;24.786;2023-05-16T09:01:39;11.70;;;10.50;;
7025;SDS011;3554;42.132;24.786;2023-05-16T09:04:07;13.03;;;11.77;;
7025;SDS011;3554;42.132;24.786;2023-05-16T09:06:36;13.20;;;12.00;;
7025;SDS011;3554;42.132;24.786;2023-05-16T09:09:03;13.10;;;12.03;;
7025;SDS011;3554;42.132;24.786;2023-05-16T09:11:32;12.70;;;11.70;;
7025;SDS011;3554;42.132;24.786;2023-05-16T09:13:59;13.60;;;12.50;;
7025;SDS011;3554;42.132;24.786;2023-05-16T09:16:25;13.40;;;11.90;;
7025;SDS011;3554;42.132;24.786;2023-05-16T09:18:53;12.93;;;11.90;;
7025;SDS011;3554;42.132;24.786;2023-05-16T09:21:22;12.90;;;11.73;;
7025;SDS011;3554;42.132;24.786;2023-05-16T09:23:53;13.67;;;12.47;;
7025;SDS011;3554;42.132;24.786;2023-05-16T09:26:20;12.00;;;11.10;;
7025;SDS011;3554;42.132;24.786;2023-05-16T09:28:47;11.67;;;10.97;;
7025;SDS011;3554;42.132;24.786;2023-05-16T09:31:18;12.40;;;11.40;;
7025;SDS011;3554;42.132;24.786;2023-05-16T09:33:47;13.70;;;12.20;;
7025;SDS011;3554;42.132;24.786;2023-05-16T09:36:14;15.07;;;13.50;;
7025;SDS011;3554;42.132;24.786;2023-05-16T09:38:41;14.70;;;13.53;;
7025;SDS011;3554;42.132;24.786;2023-05-16T09:41:10;14.63;;;13.63;;
7025;SDS011;3554;42.132;24.786;2023-05-16T09:43:37;15.37;;;13.60;;
7025;SDS011;3554;42.132;24.786;2023-05-16T09:46:06;14.87;;;13.63;;
7025;SDS011;3554;42.132;24.786;2023-05-16T09:48:32;14.73;;;13.23;;
7025;SDS011;3554;42.132;24.786;2023-05-16T09:51:00;13.67;;;12.63;;
7025;SDS011;3554;42.132;24.786;2023-05-16T09:53:30;15.70;;;14.30;;
7025;SDS011;3554;42.132;24.786;2023-05-16T09:55:59;14.20;;;13.10;;
7025;SDS011;3554;42.132;24.786;2023-05-16T09:58:29;16.50;;;14.83;;
7025;SDS011;3554;42.132;24.786;2023-05-16T10:00:56;15.00;;;13.80;;
7025;SDS011;3554;42.132;24.786;2023-05-16T10:03:24;14.03;;;12.70;;
7025;SDS011;3554;42.132;24.786;2023-05-16T10:05:51;15.47;;;13.77;;
7025;SDS011;3554;42.132;24.786;2023-05-16T10:08:19;14.10;;;12.97;;
7025;SDS011;3554;42.132;24.786;2023-05-16T10:10:48;14.63;;;13.50;;
7025;SDS011;3554;42.132;24.786;2023-05-16T10:13:18;15.97;;;14.70;;
7025;SDS011;3554;42.132;24.786;2023-05-16T10:15:48;16.60;;;14.97;;
7025;SDS011;3554;42.132;24.786;2023-05-16T10:18:15;17.13;;;15.60;;
7025;SDS011;3554;42.132;24.786;2023-05-16T10:20:44;15.43;;;14.20;;
7025;SDS011;3554;42.132;24.786;2023-05-16T10:23:15;16.77;;;15.13;;
7025;SDS011;3554;42.132;24.786;2023-05-16T10:25:43;16.20;;;14.83;;
7025;SDS011;3554;42.132;24.786;2023-05-16T10:28:11;16.17;;;14.50;;
7025;SDS011;3554;42.132;24.786;2023-05-16T10:30:39;16.77;;;15.27;;
7025;SDS011;3554;42.132;24.786;2023-05-16T10:33:09;17.23;;;15.63;;
7025;SDS011;3554;42.132;24.786;2023-05-16T10:35:37;17.40;;;15.90;;
7025;SDS011;3554;42.132;24.786;2023-05-16T10:38:04;16.93;;;15.43;;
7025;SDS011;3554;42.132;24.786;2023-05-16T10:40:33;17.30;;;15.80;;
7025;SDS011;3554;42.132;24.786;2023-05-16T10:43:02;17.57;;;16.17;;
7025;SDS011;3554;42.132;24.786;2023-05-16T10:45:31;17.70;;;16.23;;
7025;SDS011;3554;42.132;24.786;2023-05-16T10:47:58;16.87;;;15.43;;
7025;SDS011;3554;42.132;24.786;2023-05-16T10:50:33;17.30;;;15.67;;
7025;SDS011;3554;42.132;24.786;2023-05-16T10:53:17;16.87;;;15.20;;
7025;SDS011;3554;42.132;24.786;2023-05-16T10:55:49;18.03;;;16.27;;
7025;SDS011;3554;42.132;24.786;2023-05-16T10:58:38;17.43;;;15.87;;
7025;SDS011;3554;42.132;24.786;2023-05-16T11:01:16;17.20;;;15.93;;
7025;SDS011;3554;42.132;24.786;2023-05-16T11:04:07;16.23;;;14.80;;
7025;SDS011;3554;42.132;24.786;2023-05-16T11:06:48;18.03;;;16.43;;
7025;SDS011;3554;42.132;24.786;2023-05-16T11:09:17;18.10;;;16.50;;
7025;SDS011;3554;42.132;24.786;2023-05-16T11:11:57;20.77;;;16.67;;
7025;SDS011;3554;42.132;24.786;2023-05-16T11:14:27;17.60;;;15.93;;
7025;SDS011;3554;42.132;24.786;2023-05-16T11:16:59;16.97;;;15.67;;
7025;SDS011;3554;42.132;24.786;2023-05-16T11:19:28;16.03;;;14.67;;
7025;SDS011;3554;42.132;24.786;2023-05-16T11:24:52;17.53;;;15.83;;
7025;SDS011;3554;42.132;24.786;2023-05-16T11:27:21;17.37;;;15.77;;
7025;SDS011;3554;42.132;24.786;2023-05-16T11:29:50;16.80;;;14.53;;
7025;SDS011;3554;42.132;24.786;2023-05-16T11:32:20;15.27;;;13.93;;
7025;SDS011;3554;42.132;24.786;2023-05-16T11:34:48;17.63;;;15.90;;
7025;SDS011;3554;42.132;24.786;2023-05-16T11:37:16;18.33;;;16.47;;
7025;SDS011;3554;42.132;24.786;2023-05-16T11:39:45;16.93;;;15.33;;
7025;SDS011;3554;42.132;24.786;2023-05-16T11:42:12;15.83;;;14.67;;
7025;SDS011;3554;42.132;24.786;2023-05-16T11:44:39;16.57;;;15.10;;
7025;SDS011;3554;42.132;24.786;2023-05-16T11:47:07;20.33;;;16.37;;
7025;SDS011;3554;42.132;24.786;2023-05-16T11:49:33;17.00;;;15.30;;
7025;SDS011;3554;42.132;24.786;2023-05-16T11:52:01;16.60;;;14.20;;
7025;SDS011;3554;42.132;24.786;2023-05-16T11:54:28;14.37;;;13.37;;
7025;SDS011;3554;42.132;24.786;2023-05-16T11:56:56;16.40;;;14.90;;
7025;SDS011;3554;42.132;24.786;2023-05-16T11:59:24;16.87;;;15.37;;
7025;SDS011;3554;42.132;24.786;2023-05-16T12:01:51;17.33;;;15.73;;
7025;SDS011;3554;42.132;24.786;2023-05-16T12:04:18;16.43;;;15.10;;
7025;SDS011;3554;42.132;24.786;2023-05-16T12:06:44;16.80;;;15.53;;
7025;SDS011;3554;42.132;24.786;2023-05-16T12:09:23;24.30;;;17.80;;
7025;SDS011;3554;42.132;24.786;2023-05-16T12:11:50;18.73;;;16.70;;
7025;SDS011;3554;42.132;24.786;2023-05-16T12:14:19;15.20;;;13.70;;
7025;SDS011;3554;42.132;24.786;2023-05-16T12:16:46;16.90;;;15.50;;
7025;SDS011;3554;42.132;24.786;2023-05-16T12:19:13;14.93;;;13.60;;
7025;SDS011;3554;42.132;24.786;2023-05-16T12:21:41;17.67;;;15.27;;
7025;SDS011;3554;42.132;24.786;2023-05-16T12:24:08;15.17;;;14.00;;
7025;SDS011;3554;42.132;24.786;2023-05-16T12:26:37;16.03;;;14.60;;
7025;SDS011;3554;42.132;24.786;2023-05-16T12:29:06;17.00;;;13.97;;
7025;SDS011;3554;42.132;24.786;2023-05-16T12:31:37;16.07;;;14.57;;
7025;SDS011;3554;42.132;24.786;2023-05-16T12:34:15;15.17;;;13.70;;
7025;SDS011;3554;42.132;24.786;2023-05-16T12:36:43;15.63;;;13.97;;
7025;SDS011;3554;42.132;24.786;2023-05-16T12:39:10;17.17;;;13.93;;
7025;SDS011;3554;42.132;24.786;2023-05-16T12:41:39;26.67;;;23.80;;
7025;SDS011;3554;42.132;24.786;2023-05-16T12:44:09;24.87;;;20.47;;
7025;SDS011;3554;42.132;24.786;2023-05-16T12:46:43;15.33;;;13.93;;
7025;SDS011;3554;42.132;24.786;2023-05-16T12:49:10;15.93;;;13.93;;
7025;SDS011;3554;42.132;24.786;2023-05-16T12:51:38;22.63;;;13.47;;
7025;SDS011;3554;42.132;24.786;2023-05-16T12:54:08;13.40;;;12.23;;
7025;SDS011;3554;42.132;24.786;2023-05-16T12:56:36;12.63;;;11.67;;
7025;SDS011;3554;42.132;24.786;2023-05-16T12:59:03;12.03;;;10.80;;
7025;SDS011;3554;42.132;24.786;2023-05-16T13:01:30;13.33;;;12.03;;
7025;SDS011;3554;42.132;24.786;2023-05-16T13:03:59;14.10;;;12.63;;
7025;SDS011;3554;42.132;24.786;2023-05-16T13:06:25;16.87;;;13.13;;
7025;SDS011;3554;42.132;24.786;2023-05-16T13:08:52;13.23;;;12.07;;
7025;SDS011;3554;42.132;24.786;2023-05-16T13:11:19;14.03;;;12.53;;
7025;SDS011;3554;42.132;24.786;2023-05-16T13:13:46;13.80;;;12.67;;
7025;SDS011;3554;42.132;24.786;2023-05-16T13:16:13;12.47;;;11.60;;
7025;SDS011;3554;42.132;24.786;2023-05-16T13:18:40;12.97;;;11.77;;
7025;SDS011;3554;42.132;24.786;2023-05-16T13:21:08;14.37;;;12.13;;
7025;SDS011;3554;42.132;24.786;2023-05-16T13:23:35;16.77;;;12.87;;
7025;SDS011;3554;42.132;24.786;2023-05-16T13:26:02;14.90;;;13.70;;
7025;SDS011;3554;42.132;24.786;2023-05-16T13:28:29;14.67;;;12.87;;
7025;SDS011;3554;42.132;24.786;2023-05-16T13:30:57;13.40;;;12.07;;
7025;SDS011;3554;42.132;24.786;2023-05-16T13:33:23;13.73;;;12.33;;
7025;SDS011;3554;42.132;24.786;2023-05-16T13:35:50;16.03;;;12.60;;
7025;SDS011;3554;42.132;24.786;2023-05-16T13:38:20;13.50;;;12.30;;
7025;SDS011;3554;42.132;24.786;2023-05-16T13:40:47;12.57;;;11.57;;
7025;SDS011;3554;42.132;24.786;2023-05-16T13:43:14;13.47;;;12.33;;
7025;SDS011;3554;42.132;24.786;2023-05-16T13:45:41;12.93;;;11.73;;
7025;SDS011;3554;42.132;24.786;2023-05-16T13:48:08;13.80;;;12.50;;
7025;SDS011;3554;42.132;24.786;2023-05-16T13:50:35;17.93;;;14.00;;
7025;SDS011;3554;42.132;24.786;2023-05-16T13:53:03;14.40;;;13.13;;
7025;SDS011;3554;42.132;24.786;2023-05-16T13:55:31;15.20;;;13.73;;
7025;SDS011;3554;42.132;24.786;2023-05-16T13:57:58;14.17;;;12.90;;
7025;SDS011;3554;42.132;24.786;2023-05-16T14:00:25;14.37;;;12.90;;
7025;SDS011;3554;42.132;24.786;2023-05-16T14:02:52;15.57;;;12.57;;
7025;SDS011;3554;42.132;24.786;2023-05-16T14:05:18;13.97;;;12.40;;
7025;SDS011;3554;42.132;24.786;2023-05-16T14:07:45;13.17;;;12.07;;
7025;SDS011;3554;42.132;24.786;2023-05-16T14:10:12;15.13;;;13.90;;
7025;SDS011;3554;42.132;24.786;2023-05-16T14:12:40;16.97;;;13.13;;
7025;SDS011;3554;42.132;24.786;2023-05-16T14:15:07;20.27;;;14.00;;
7025;SDS011;3554;42.132;24.786;2023-05-16T14:17:35;15.27;;;13.93;;
7025;SDS011;3554;42.132;24.786;2023-05-16T14:20:01;15.10;;;13.63;;
7025;SDS011;3554;42.132;24.786;2023-05-16T14:22:32;16.30;;;14.70;;
7025;SDS011;3554;42.132;24.786;2023-05-16T14:24:59;15.70;;;14.50;;
7025;SDS011;3554;42.132;24.786;2023-05-16T14:27:26;15.77;;;14.30;;
7025;SDS011;3554;42.132;24.786;2023-05-16T14:29:54;16.63;;;14.57;;
7025;SDS011;3554;42.132;24.786;2023-05-16T14:32:21;16.97;;;14.43;;
7025;SDS011;3554;42.132;24.786;2023-05-16T14:34:48;18.53;;;13.77;;
7025;SDS011;3554;42.132;24.786;2023-05-16T14:37:15;15.60;;;14.10;;
7025;SDS011;3554;42.132;24.786;2023-05-16T14:39:43;15.20;;;13.90;;
7025;SDS011;3554;42.132;24.786;2023-05-16T14:42:10;19.90;;;15.30;;